Time;durP1;ratioP1;P1;durP2;ratioP2;P2;SDS_P1;SDS_P2;PMS_P1;PMS_P2;Temp;Humidity;BMP_temperature;BMP_pressure;BME280_temperature;BME280_humidity;BME280_pressure;Samples;Min_cycle;Max_cycle;Signal;HPM_P1;HPM_P2
2020/12/01 00:00:15;;;;;;;1999.90;999.90;;;;;;;-0.46;69.64;97370.56;5093184;28;20187;-70
2020/12/01 00:02:40;;;;;;;1999.90;999.90;;;;;;;-0.58;69.64;97363.81;5092998;28;20044;-69
2020/12/01 00:05:07;;;;;;;1999.90;999.90;;;;;;;-0.68;70.46;97364.63;5093201;28;20058;-69
2020/12/01 00:07:32;;;;;;;1999.90;999.90;;;;;;;-0.51;69.85;97368.34;5093137;28;20135;-69
2020/12/01 00:09:58;;;;;;;1999.90;999.90;;;;;;;-0.69;69.77;97370.78;5093059;28;20631;-69
2020/12/01 00:12:23;;;;;;;1999.90;999.90;;;;;;;-0.71;70.08;97366.66;5092723;28;20052;-69
2020/12/01 00:14:49;;;;;;;1999.90;999.90;;;;;;;-0.73;70.11;97369.38;5093070;28;20131;-70
2020/12/01 00:17:14;;;;;;;1999.90;999.90;;;;;;;-0.67;69.87;97368.84;5092965;28;20048;-70
2020/12/01 00:19:39;;;;;;;1999.90;999.90;;;;;;;-0.68;69.85;97371.59;5092928;28;20174;-70
2020/12/01 00:22:05;;;;;;;1999.90;999.90;;;;;;;-0.71;70.48;97372.66;5107176;28;20052;-69
2020/12/01 00:24:31;;;;;;;1999.90;999.90;;;;;;;-0.77;70.42;97375.75;5092936;28;20127;-70
2020/12/01 00:26:56;;;;;;;1999.90;999.90;;;;;;;-0.62;69.79;97370.22;5092643;28;20072;-69
2020/12/01 00:29:22;;;;;;;1999.90;999.90;;;;;;;-0.63;70.75;97373.75;5092952;28;20048;-70
2020/12/01 00:31:47;;;;;;;1999.90;999.90;;;;;;;-0.70;71.01;97363.94;5092435;28;20509;-70
2020/12/01 00:34:15;;;;;;;1999.90;999.90;;;;;;;-0.51;69.25;97375.31;5092278;28;20052;-69
2020/12/01 00:36:41;;;;;;;1999.90;999.90;;;;;;;-0.49;69.14;97365.66;5092606;28;20047;-69
2020/12/01 00:39:08;;;;;;;1999.90;999.90;;;;;;;-0.50;69.59;97364.00;5092465;28;20055;-70
2020/12/01 00:41:35;;;;;;;1999.90;999.90;;;;;;;-0.37;68.78;97364.56;5099237;28;20075;-70
2020/12/01 00:44:00;;;;;;;1999.90;999.90;;;;;;;-0.32;68.62;97365.94;5092332;28;20063;-69
2020/12/01 00:46:28;;;;;;;1999.90;999.90;;;;;;;-0.29;68.92;97363.09;5092410;28;20056;-69
2020/12/01 00:48:53;;;;;;;1999.90;999.90;;;;;;;-0.51;69.62;97357.97;5092415;28;20139;-69
2020/12/01 00:51:19;;;;;;;1999.90;999.90;;;;;;;-0.50;69.36;97359.63;5092297;28;20079;-69
2020/12/01 00:53:44;;;;;;;1999.90;999.90;;;;;;;-0.55;69.41;97360.97;5092094;28;20052;-69
2020/12/01 00:56:11;;;;;;;1999.90;999.90;;;;;;;-0.52;69.28;97360.72;5092375;28;20462;-69
2020/12/01 00:58:37;;;;;;;1999.90;999.90;;;;;;;-0.50;67.83;97353.63;5093283;28;20081;-70
2020/12/01 01:01:03;;;;;;;1999.90;999.90;;;;;;;-0.65;67.29;97357.53;5096200;28;20137;-70
2020/12/01 01:03:28;;;;;;;1999.90;999.90;;;;;;;-0.58;68.25;97356.03;5095933;28;20055;-70
2020/12/01 01:05:54;;;;;;;1999.90;999.90;;;;;;;-0.59;68.60;97349.25;5095844;28;20051;-69
2020/12/01 01:08:19;;;;;;;1999.90;999.90;;;;;;;-0.75;68.43;97353.13;5096057;28;20489;-70
2020/12/01 01:10:44;;;;;;;1999.90;999.90;;;;;;;-0.73;68.81;97353.00;5096008;28;20040;-70
2020/12/01 01:13:11;;;;;;;1999.90;999.90;;;;;;;-0.73;69.43;97353.81;5095886;28;20054;-69
2020/12/01 01:15:36;;;;;;;1999.90;999.90;;;;;;;-0.69;69.15;97354.38;5096445;28;20072;-70
2020/12/01 01:18:03;;;;;;;1999.90;999.90;;;;;;;-0.69;67.44;97352.63;5096062;28;20054;-70
2020/12/01 01:20:29;;;;;;;1999.90;999.90;;;;;;;-0.68;68.74;97349.06;5096193;28;20176;-70
2020/12/01 01:22:56;;;;;;;1999.90;999.90;;;;;;;-0.68;69.18;97340.47;5095868;28;20052;-69
2020/12/01 01:25:22;;;;;;;1999.90;999.90;;;;;;;-0.52;68.78;97351.19;5095980;28;20553;-70
2020/12/01 01:27:48;;;;;;;1999.90;999.90;;;;;;;-0.65;68.55;97341.97;5095952;28;20044;-69
2020/12/01 01:30:22;;;;;;;1999.90;999.90;;;;;;;-0.56;68.18;97338.59;5095825;28;20210;-70
2020/12/01 01:32:47;;;;;;;1999.90;999.90;;;;;;;-0.57;68.08;97335.19;5095665;28;20052;-69
2020/12/01 01:35:13;;;;;;;1999.90;999.90;;;;;;;-0.41;68.05;97332.09;5095739;28;20048;-70
2020/12/01 01:37:39;;;;;;;1999.90;999.90;;;;;;;-0.36;68.57;97339.47;5095864;28;20130;-70
2020/12/01 01:40:06;;;;;;;1999.90;999.90;;;;;;;-0.40;66.47;97333.72;5096032;28;20054;-70
2020/12/01 01:42:32;;;;;;;1999.90;999.90;;;;;;;-0.35;66.63;97331.56;5095556;28;20040;-69
2020/12/01 01:44:58;;;;;;;1999.90;999.90;;;;;;;-0.47;66.06;97331.81;5095654;28;20501;-70
2020/12/01 01:47:29;;;;;;;1999.90;999.90;;;;;;;-0.54;66.58;97331.53;5107547;28;20141;-70
2020/12/01 01:50:09;;;;;;;1999.90;999.90;;;;;;;-0.42;65.90;97325.25;5095560;28;20108;-70
2020/12/01 01:52:37;;;;;;;1999.90;999.90;;;;;;;-0.45;66.45;97330.72;5095123;28;20073;-69
2020/12/01 01:55:17;;;;;;;1999.90;999.90;;;;;;;-0.43;66.25;97328.78;5095471;28;20048;-70
2020/12/01 01:57:48;;;;;;;1999.90;999.90;;;;;;;-0.40;66.74;97317.34;5095366;28;20059;-70
2020/12/01 02:00:36;;;;;;;1999.90;999.90;;;;;;;-0.44;66.70;97315.97;5095418;28;20035;-69
2020/12/01 02:03:02;;;;;;;1999.90;999.90;;;;;;;-0.47;66.46;97324.84;5095291;28;20040;-69
2020/12/01 02:05:27;;;;;;;1999.90;999.90;;;;;;;-0.51;67.24;97320.88;5095220;28;20044;-69
2020/12/01 02:07:53;;;;;;;1999.90;999.90;;;;;;;-0.62;67.58;97320.97;5095166;28;20032;-70
2020/12/01 02:10:19;;;;;;;1999.90;999.90;;;;;;;-0.74;66.97;97321.09;5094852;28;20066;-69
2020/12/01 02:12:47;;;;;;;1999.90;999.90;;;;;;;-0.78;67.50;97317.09;5094420;28;20058;-69
2020/12/01 02:15:13;;;;;;;1999.90;999.90;;;;;;;-0.78;67.28;97314.50;5094767;28;20052;-70
2020/12/01 02:17:38;;;;;;;1999.90;999.90;;;;;;;-0.87;67.40;97316.13;5093563;28;20127;-70
2020/12/01 02:20:13;;;;;;;1999.90;999.90;;;;;;;-0.86;67.40;97312.56;5094615;28;20052;-70
2020/12/01 02:22:43;;;;;;;1999.90;999.90;;;;;;;-1.00;67.77;97306.00;5094439;28;20134;-69
2020/12/01 02:25:08;;;;;;;1999.90;999.90;;;;;;;-0.98;67.53;97302.44;5094450;28;20129;-69
2020/12/01 02:27:34;;;;;;;1999.90;999.90;;;;;;;-0.89;66.93;97304.25;5094425;28;20072;-70
2020/12/01 02:29:59;;;;;;;1999.90;999.90;;;;;;;-0.97;67.91;97304.06;5094452;28;20126;-69
2020/12/01 02:32:26;;;;;;;1999.90;999.90;;;;;;;-0.94;67.18;97309.00;5094226;28;20055;-69
2020/12/01 02:34:54;;;;;;;1999.90;999.90;;;;;;;-0.85;66.96;97295.25;5094373;28;20051;-69
2020/12/01 02:37:26;;;;;;;1999.90;999.90;;;;;;;-0.82;67.10;97302.75;5094244;28;20059;-69
2020/12/01 02:39:52;;;;;;;1999.90;999.90;;;;;;;-1.07;66.46;97297.09;5094233;28;20051;-69
2020/12/01 02:42:22;;;;;;;1999.90;999.90;;;;;;;-1.12;66.34;97296.66;5094020;28;20051;-69
2020/12/01 02:44:49;;;;;;;1999.90;999.90;;;;;;;-1.26;66.97;97299.59;5094202;28;20086;-69
2020/12/01 02:47:14;;;;;;;1999.90;999.90;;;;;;;-1.26;67.89;97297.00;5094054;28;20485;-70
2020/12/01 02:49:39;;;;;;;1999.90;999.90;;;;;;;-1.46;68.29;97299.47;5094082;28;20055;-70
2020/12/01 02:52:05;;;;;;;1999.90;999.90;;;;;;;-1.25;67.83;97298.66;5093987;28;20052;-69
2020/12/01 02:54:31;;;;;;;1999.90;999.90;;;;;;;-1.26;67.47;97295.22;5093901;28;20047;-70
2020/12/01 02:56:56;;;;;;;1999.90;999.90;;;;;;;-1.30;67.12;97300.78;5094328;28;20127;-70
2020/12/01 02:59:22;;;;;;;1999.90;999.90;;;;;;;-1.20;67.23;97296.50;5093856;28;20051;-69
2020/12/01 03:01:47;;;;;;;1999.90;999.90;;;;;;;-1.31;68.65;97299.16;5093639;28;20123;-69
2020/12/01 03:04:13;;;;;;;1999.90;999.90;;;;;;;-1.18;67.55;97304.94;5093727;28;20052;-69
2020/12/01 03:06:39;;;;;;;1999.90;999.90;;;;;;;-1.11;66.96;97302.63;5093670;28;20044;-69
2020/12/01 03:09:10;;;;;;;1999.90;999.90;;;;;;;-1.15;67.67;97296.91;5093801;28;20131;-70
2020/12/01 03:11:36;;;;;;;1999.90;999.90;;;;;;;-1.19;67.21;97292.91;5096403;28;20103;-69
2020/12/01 03:14:02;;;;;;;1999.90;999.90;;;;;;;-1.27;67.91;97287.59;5103013;28;20505;-70
2020/12/01 03:16:27;;;;;;;1999.90;999.90;;;;;;;-1.19;66.89;97290.34;5093815;28;20044;-70
2020/12/01 03:18:53;;;;;;;1999.90;999.90;;;;;;;-1.14;67.45;97293.34;5093827;28;20067;-69
2020/12/01 03:21:18;;;;;;;1999.90;999.90;;;;;;;-1.16;66.50;97290.09;5093120;28;20044;-69
2020/12/01 03:23:44;;;;;;;1999.90;999.90;;;;;;;-1.07;66.69;97285.91;5093676;28;20055;-70
2020/12/01 03:26:13;;;;;;;1999.90;999.90;;;;;;;-1.08;64.60;97286.84;5093637;28;20123;-69
2020/12/01 03:28:39;;;;;;;1999.90;999.90;;;;;;;-1.13;65.24;97289.00;5093447;28;20035;-70
2020/12/01 03:31:05;;;;;;;1999.90;999.90;;;;;;;-1.20;65.31;97286.94;5093652;28;20036;-70
2020/12/01 03:33:30;;;;;;;1999.90;999.90;;;;;;;-1.13;65.65;97295.00;5092929;28;20426;-69
2020/12/01 03:35:56;;;;;;;1999.90;999.90;;;;;;;-1.05;64.65;97287.44;5093531;28;20043;-69
2020/12/01 03:38:21;;;;;;;1999.90;999.90;;;;;;;-1.11;64.80;97280.16;5093501;28;20548;-69
2020/12/01 03:40:47;;;;;;;1999.90;999.90;;;;;;;-1.14;64.72;97277.81;5093268;28;20189;-69
2020/12/01 03:43:13;;;;;;;1999.90;999.90;;;;;;;-1.18;64.60;97281.63;5093064;28;20055;-69
2020/12/01 03:45:39;;;;;;;1999.90;999.90;;;;;;;-1.29;65.60;97279.09;5093050;28;20437;-69
2020/12/01 03:48:05;;;;;;;1999.90;999.90;;;;;;;-1.39;65.35;97282.47;5093299;28;20466;-69
2020/12/01 03:50:31;;;;;;;1999.90;999.90;;;;;;;-1.47;66.00;97286.69;5093223;28;20068;-70
2020/12/01 03:52:57;;;;;;;1999.90;999.90;;;;;;;-1.32;65.52;97282.81;5092826;28;20556;-69
2020/12/01 03:55:25;;;;;;;1999.90;999.90;;;;;;;-1.22;66.26;97280.25;5093020;28;20079;-70
2020/12/01 03:57:51;;;;;;;1999.90;999.90;;;;;;;-1.19;66.22;97290.34;5092888;28;20048;-69
2020/12/01 04:00:20;;;;;;;1999.90;999.90;;;;;;;-1.25;65.27;97286.50;5092876;28;20280;-70
2020/12/01 04:02:46;;;;;;;1999.90;999.90;;;;;;;-1.30;65.82;97277.50;5092718;28;20048;-69
2020/12/01 04:05:13;;;;;;;1999.90;999.90;;;;;;;-1.47;65.76;97282.31;5092767;28;20059;-70
2020/12/01 04:07:38;;;;;;;1999.90;999.90;;;;;;;-1.43;64.82;97282.88;5093133;28;20413;-70
2020/12/01 04:10:05;;;;;;;1999.90;999.90;;;;;;;-1.46;65.32;97289.13;5092718;28;20047;-70
2020/12/01 04:12:31;;;;;;;1999.90;999.90;;;;;;;-1.37;64.53;97288.34;5092615;28;20140;-70
2020/12/01 04:14:57;;;;;;;1999.90;999.90;;;;;;;-1.25;65.18;97290.88;5093168;28;20048;-69
2020/12/01 04:17:23;;;;;;;1999.90;999.90;;;;;;;-1.27;64.90;97287.59;5092951;28;20048;-70
2020/12/01 04:19:49;;;;;;;1999.90;999.90;;;;;;;-1.36;65.37;97290.00;5093156;28;20040;-70
2020/12/01 04:22:15;;;;;;;1999.90;999.90;;;;;;;-1.44;65.68;97294.97;5092839;28;20087;-70
2020/12/01 04:24:41;;;;;;;1999.90;999.90;;;;;;;-1.53;66.53;97290.56;5092979;28;20413;-70
2020/12/01 04:27:11;;;;;;;1999.90;999.90;;;;;;;-1.54;66.21;97288.94;5092970;28;20056;-69
2020/12/01 04:29:37;;;;;;;1999.90;999.90;;;;;;;-1.57;65.29;97291.78;5092780;28;20048;-69
2020/12/01 04:32:03;;;;;;;1999.90;999.90;;;;;;;-1.62;64.81;97293.94;5092690;28;20134;-69
2020/12/01 04:34:28;;;;;;;1999.90;999.90;;;;;;;-1.50;64.71;97288.56;5096933;28;20056;-70
2020/12/01 04:36:54;;;;;;;1999.90;999.90;;;;;;;-1.46;64.49;97289.13;5096949;28;20105;-69
2020/12/01 04:39:19;;;;;;;1999.90;999.90;;;;;;;-1.42;65.25;97277.56;5098583;28;20060;-69
2020/12/01 04:41:45;;;;;;;1999.90;999.90;;;;;;;-1.41;64.83;97276.63;5100005;28;20051;-69
2020/12/01 04:44:24;;;;;;;1999.90;999.90;;;;;;;-1.41;64.55;97268.00;5097050;28;20044;-69
2020/12/01 04:46:51;;;;;;;1999.90;999.90;;;;;;;-1.47;64.43;97271.94;5096731;28;20048;-69
2020/12/01 04:49:30;;;;;;;1999.90;999.90;;;;;;;-1.41;64.67;97276.63;5096724;28;20048;-69
2020/12/01 04:52:22;;;;;;;1999.90;999.90;;;;;;;-1.82;65.28;97273.09;5096371;28;20047;-69
2020/12/01 04:55:32;;;;;;;1999.90;999.90;;;;;;;-1.68;65.01;97270.19;5096527;28;20444;-69
2020/12/01 04:58:03;;;;;;;1999.90;999.90;;;;;;;-1.69;64.72;97268.53;5085714;28;20055;-69
2020/12/01 05:00:40;;;;;;;1999.90;999.90;;;;;;;-1.60;64.32;97273.94;5096477;28;20116;-69
2020/12/01 05:03:15;;;;;;;1999.90;999.90;;;;;;;-1.59;63.71;97278.97;5096231;28;20047;-69
2020/12/01 05:08:30;;;;;;;1999.90;999.90;;;;;;;-1.84;64.18;97280.16;5096371;28;20042;-69
2020/12/01 05:11:01;;;;;;;1999.90;999.90;;;;;;;-1.81;65.00;97274.75;5096271;28;20131;-69
2020/12/01 05:13:31;;;;;;;1999.90;999.90;;;;;;;-2.00;65.10;97272.84;5095830;28;20052;-69
2020/12/01 05:16:19;;;;;;;1999.90;999.90;;;;;;;-1.86;65.12;97267.34;5095898;28;20570;-70
2020/12/01 05:18:45;;;;;;;1999.90;999.90;;;;;;;-2.04;65.35;97277.44;5084212;28;20505;-69
2020/12/01 05:21:10;;;;;;;1999.90;999.90;;;;;;;-2.21;66.32;97272.81;5095801;28;20040;-69
2020/12/01 05:23:44;;;;;;;1999.90;999.90;;;;;;;-2.29;65.88;97275.16;5095574;28;20390;-71
2020/12/01 05:26:13;;;;;;;1999.90;999.90;;;;;;;-2.16;65.33;97281.81;5095759;28;20412;-69
2020/12/01 05:28:44;;;;;;;1999.90;999.90;;;;;;;-1.99;65.29;97288.22;5095596;28;20044;-69
2020/12/01 05:31:11;;;;;;;1999.90;999.90;;;;;;;-1.94;64.98;97289.59;5095587;28;20098;-69
2020/12/01 05:33:36;;;;;;;1999.90;999.90;;;;;;;-1.95;65.17;97278.44;5095304;28;20056;-69
2020/12/01 05:36:43;;;;;;;1999.90;999.90;;;;;;;-2.05;64.85;97288.72;5095488;28;20047;-69
2020/12/01 05:39:21;;;;;;;1999.90;999.90;;;;;;;-2.04;63.99;97285.19;5052821;28;20486;-69
2020/12/01 05:42:17;;;;;;;1999.90;999.90;;;;;;;-1.93;64.33;97286.09;5052552;28;20133;-69
2020/12/01 05:44:44;;;;;;;1999.90;999.90;;;;;;;-2.04;64.85;97290.34;5044039;28;20435;-69
2020/12/01 05:47:15;;;;;;;1999.90;999.90;;;;;;;-1.97;65.16;97282.09;5052635;28;20072;-69
2020/12/01 05:50:02;;;;;;;1999.90;999.90;;;;;;;-1.89;64.78;97282.28;5052596;28;20033;-69
2020/12/01 05:52:30;;;;;;;1999.90;999.90;;;;;;;-2.05;64.73;97278.38;5052715;28;20044;-69
2020/12/01 05:55:07;;;;;;;1999.90;999.90;;;;;;;-2.04;64.94;97274.84;5052388;28;20095;-70
2020/12/01 05:57:33;;;;;;;1999.90;999.90;;;;;;;-2.08;65.39;97286.38;5052219;28;20051;-69
2020/12/01 06:00:22;;;;;;;1999.90;999.90;;;;;;;-1.97;65.26;97284.69;5052442;28;20033;-69
2020/12/01 06:03:06;;;;;;;1999.90;999.90;;;;;;;-2.15;65.44;97282.63;5052237;28;20041;-70
2020/12/01 06:05:35;;;;;;;1999.90;999.90;;;;;;;-2.02;64.72;97280.72;5053681;28;20045;-69
2020/12/01 06:08:11;;;;;;;1999.90;999.90;;;;;;;-1.92;64.91;97287.72;5060600;28;20229;-70
2020/12/01 06:10:47;;;;;;;1999.90;999.90;;;;;;;-1.81;64.20;97287.69;5086108;28;20123;-70
2020/12/01 06:13:34;;;;;;;1999.90;999.90;;;;;;;-1.80;64.46;97291.88;5094689;28;20056;-70
2020/12/01 06:16:21;;;;;;;1999.90;999.90;;;;;;;-1.70;64.06;97289.38;5095084;28;20128;-70
2020/12/01 06:18:58;;;;;;;1999.90;999.90;;;;;;;-1.64;64.38;97290.63;5095061;28;20047;-70
2020/12/01 06:21:53;;;;;;;1999.90;999.90;;;;;;;-1.55;64.73;97284.72;5094803;28;20055;-69
2020/12/01 06:24:56;;;;;;;1999.90;999.90;;;;;;;-1.56;65.63;97296.00;5094790;28;20048;-70
2020/12/01 06:27:33;;;;;;;1999.90;999.90;;;;;;;-1.41;65.12;97292.16;5095128;28;20425;-70
2020/12/01 06:30:03;;;;;;;1999.90;999.90;;;;;;;-1.29;64.75;97290.31;5094507;28;20070;-70
2020/12/01 06:32:40;;;;;;;1999.90;999.90;;;;;;;-1.17;65.49;97291.03;5094528;28;20075;-70
2020/12/01 06:35:33;;;;;;;1999.90;999.90;;;;;;;-1.05;64.80;97292.59;5094404;28;20078;-70
2020/12/01 06:38:10;;;;;;;1999.90;999.90;;;;;;;-0.88;64.39;97291.16;5094381;28;20044;-69
2020/12/01 06:41:16;;;;;;;1999.90;999.90;;;;;;;-0.79;64.19;97294.75;5094285;28;20459;-70
2020/12/01 06:43:47;;;;;;;1999.90;999.90;;;;;;;-0.70;64.51;97290.53;5051372;28;20545;-70
2020/12/01 06:46:46;;;;;;;1999.90;999.90;;;;;;;-0.53;64.05;97291.66;5051553;28;20124;-70
2020/12/01 06:49:20;;;;;;;1999.90;999.90;;;;;;;-0.41;62.89;97290.59;5046688;28;20114;-70
2020/12/01 06:51:48;;;;;;;1999.90;999.90;;;;;;;-0.62;62.69;97287.25;5051289;28;20061;-70
2020/12/01 06:54:15;;;;;;;1999.90;999.90;;;;;;;-0.69;64.13;97277.44;5051380;28;20063;-70
2020/12/01 06:56:41;;;;;;;1999.90;999.90;;;;;;;-1.06;65.22;97275.41;5050398;28;20621;-70
2020/12/01 06:59:12;;;;;;;1999.90;999.90;;;;;;;-0.71;63.54;97284.53;5051378;28;20131;-70
2020/12/01 07:01:40;;;;;;;1999.90;999.90;;;;;;;-0.75;63.94;97277.13;5051084;28;20049;-69
2020/12/01 07:04:08;;;;;;;1999.90;999.90;;;;;;;-0.76;63.18;97276.31;5051036;28;20045;-70
2020/12/01 07:06:58;;;;;;;1999.90;999.90;;;;;;;-0.82;63.48;97276.84;5051215;28;20118;-70
2020/12/01 07:09:27;;;;;;;1999.90;999.90;;;;;;;-0.67;63.65;97272.94;5057755;28;20041;-70
2020/12/01 07:12:07;;;;;;;1999.90;999.90;;;;;;;-0.34;63.52;97270.97;5050917;28;20057;-69
2020/12/01 07:14:39;;;;;;;1999.90;999.90;;;;;;;0.01;62.39;97262.78;5074864;28;20055;-70
2020/12/01 07:17:41;;;;;;;1999.90;999.90;;;;;;;0.47;60.38;97263.81;5092576;28;20055;-70
2020/12/01 07:20:10;;;;;;;1999.90;999.90;;;;;;;0.89;59.45;97258.19;5086650;28;20050;-70
2020/12/01 07:22:46;;;;;;;1999.90;999.90;;;;;;;1.21;58.32;97251.75;5093670;28;20047;-70
2020/12/01 07:25:25;;;;;;;1999.90;999.90;;;;;;;1.66;56.96;97252.72;5093794;28;20044;-70
2020/12/01 07:28:12;;;;;;;1999.90;999.90;;;;;;;1.28;58.11;97252.00;5093773;28;20040;-70
2020/12/01 07:30:51;;;;;;;1999.90;999.90;;;;;;;2.00;56.43;97251.25;5093903;28;20036;-70
2020/12/01 07:33:34;;;;;;;1999.90;999.90;;;;;;;2.16;55.39;97256.56;5100263;28;20109;-70
2020/12/01 07:36:27;;;;;;;1999.90;999.90;;;;;;;2.47;54.79;97254.34;5093877;28;20393;-70
2020/12/01 07:39:10;;;;;;;1999.90;999.90;;;;;;;2.63;54.88;97243.22;5093457;28;20051;-70
2020/12/01 07:41:46;;;;;;;1999.90;999.90;;;;;;;2.97;53.92;97250.22;5093466;28;20044;-70
2020/12/01 07:44:15;;;;;;;1999.90;999.90;;;;;;;3.27;53.66;97263.72;5093407;28;20188;-70
2020/12/01 07:47:02;;;;;;;1999.90;999.90;;;;;;;3.68;52.74;97257.00;5093454;28;20051;-70
2020/12/01 07:49:28;;;;;;;1999.90;999.90;;;;;;;3.78;51.67;97257.66;5093075;28;20148;-70
2020/12/01 07:52:15;;;;;;;1999.90;999.90;;;;;;;3.91;50.70;97257.19;5093187;28;20625;-70
2020/12/01 07:54:45;;;;;;;1999.90;999.90;;;;;;;4.15;51.36;97264.19;5093303;28;20043;-70
2020/12/01 07:57:16;;;;;;;1999.90;999.90;;;;;;;4.79;48.84;97256.44;5093307;28;20035;-70
2020/12/01 07:59:44;;;;;;;1999.90;999.90;;;;;;;5.14;47.97;97261.41;5093455;28;20044;-70
2020/12/01 08:02:10;;;;;;;1999.90;999.90;;;;;;;5.38;47.11;97264.91;5093125;28;20040;-71
2020/12/01 08:04:35;;;;;;;1999.90;999.90;;;;;;;5.67;45.97;97268.69;5093226;28;20055;-71
2020/12/01 08:07:02;;;;;;;1999.90;999.90;;;;;;;5.84;45.87;97261.56;5092871;28;20055;-71
2020/12/01 08:09:28;;;;;;;1999.90;999.90;;;;;;;6.24;45.38;97260.47;5093155;28;20044;-70
2020/12/01 08:11:55;;;;;;;1999.90;999.90;;;;;;;6.74;43.98;97260.84;5092565;28;20543;-70
2020/12/01 08:14:21;;;;;;;1999.90;999.90;;;;;;;6.75;44.12;97256.41;5092773;28;20582;-70
2020/12/01 08:17:02;;;;;;;1999.90;999.90;;;;;;;7.12;42.35;97256.50;5092714;28;20047;-70
2020/12/01 08:19:30;;;;;;;1999.90;999.90;;;;;;;7.45;41.78;97251.66;5092750;28;20047;-71
2020/12/01 08:21:56;;;;;;;1999.90;999.90;;;;;;;7.53;41.58;97253.34;5092704;28;20047;-70
2020/12/01 08:24:24;;;;;;;1999.90;999.90;;;;;;;7.85;40.84;97252.09;5092637;28;20437;-71
2020/12/01 08:27:06;;;;;;;1999.90;999.90;;;;;;;8.20;41.04;97254.84;5092638;28;20044;-71
2020/12/01 08:29:38;;;;;;;1999.90;999.90;;;;;;;8.41;39.24;97256.66;5092734;28;20063;-71
2020/12/01 08:32:11;;;;;;;1999.90;999.90;;;;;;;8.54;38.53;97261.22;5092281;28;20582;-71
2020/12/01 08:34:49;;;;;;;1999.90;999.90;;;;;;;8.65;40.37;97257.25;5092528;28;20044;-71
2020/12/01 08:37:26;;;;;;;1999.90;999.90;;;;;;;9.09;38.99;97255.28;5092854;28;20040;-71
2020/12/01 08:40:06;;;;;;;1999.90;999.90;;;;;;;9.33;38.30;97250.53;5092626;28;20044;-71
2020/12/01 08:42:56;;;;;;;1999.90;999.90;;;;;;;9.51;38.17;97258.72;5092389;28;20102;-71
2020/12/01 08:45:53;;;;;;;1999.90;999.90;;;;;;;9.76;39.17;97258.19;5092834;28;20463;-71
2020/12/01 08:48:43;;;;;;;1999.90;999.90;;;;;;;9.84;39.42;97258.00;5091518;28;20036;-71
2020/12/01 08:51:14;;;;;;;1999.90;999.90;;;;;;;9.90;39.08;97254.56;5092473;28;20089;-70
2020/12/01 08:53:57;;;;;;;1999.90;999.90;;;;;;;9.71;38.84;97252.72;5092330;28;20048;-71
2020/12/01 08:57:04;;;;;;;1999.90;999.90;;;;;;;10.12;38.05;97254.41;5092331;28;20058;-71
2020/12/01 08:59:53;;;;;;;1999.90;999.90;;;;;;;10.27;38.49;97248.13;5050626;28;20055;-70
2020/12/01 09:02:21;;;;;;;1999.90;999.90;;;;;;;10.64;37.16;97253.81;5052657;28;20440;-71
2020/12/01 09:04:47;;;;;;;1999.90;999.90;;;;;;;10.91;36.33;97245.88;5049698;28;20041;-71
2020/12/01 09:07:18;;;;;;;1999.90;999.90;;;;;;;10.98;37.19;97244.03;5049797;28;20048;-71
2020/12/01 09:10:21;;;;;;;1999.90;999.90;;;;;;;11.21;36.57;97239.09;5049611;28;20049;-71
2020/12/01 09:15:43;;;;;;;1999.90;999.90;;;;;;;11.25;37.43;97223.63;5049922;28;20418;-71
2020/12/01 09:23:37;;;;;;;1999.90;999.90;;;;;;;11.93;36.26;97216.16;5053332;28;20045;-71
2020/12/01 09:26:18;;;;;;;1999.90;999.90;;;;;;;11.98;36.08;97217.16;5053308;28;20135;-71
2020/12/01 09:28:50;;;;;;;1999.90;999.90;;;;;;;11.38;36.21;97204.28;5053257;28;20055;-71
2020/12/01 09:31:17;;;;;;;1999.90;999.90;;;;;;;11.51;36.21;97190.97;5052940;28;20068;-71
2020/12/01 09:33:43;;;;;;;1999.90;999.90;;;;;;;11.62;36.60;97191.34;5059586;28;20053;-71
2020/12/01 09:36:15;;;;;;;1999.90;999.90;;;;;;;11.31;36.45;97195.56;5082102;28;20050;-71
2020/12/01 09:38:40;;;;;;;1999.90;999.90;;;;;;;11.69;37.26;97186.84;5095516;28;20051;-71
2020/12/01 09:41:06;;;;;;;1999.90;999.90;;;;;;;11.14;36.61;97180.19;5095393;28;20470;-70
2020/12/01 09:43:39;;;;;;;1999.90;999.90;;;;;;;10.48;37.40;97187.28;5095438;28;20116;-70
2020/12/01 09:46:10;;;;;;;1999.90;999.90;;;;;;;9.46;40.28;97179.47;5095355;28;20565;-71
2020/12/01 09:48:38;;;;;;;1999.90;999.90;;;;;;;9.04;40.68;97176.88;5095364;28;20055;-71
2020/12/01 09:51:04;;;;;;;1999.90;999.90;;;;;;;8.93;41.86;97166.09;5095199;28;20059;-70
2020/12/01 09:56:15;;;;;;;1999.90;999.90;;;;;;;9.44;40.59;97160.41;5095278;28;20452;-71
2020/12/01 10:35:44;;;;;;;1999.90;999.90;;;;;;;10.05;39.54;97134.91;5052197;28;20076;-71
2020/12/01 10:38:10;;;;;;;1999.90;999.90;;;;;;;9.45;39.99;97129.59;5052098;28;20179;-71
2020/12/01 10:40:35;;;;;;;1999.90;999.90;;;;;;;9.09;40.60;97128.13;5052093;28;20094;-71
2020/12/01 10:43:01;;;;;;;1999.90;999.90;;;;;;;8.76;40.70;97128.78;5052005;28;20045;-71
2020/12/01 10:45:29;;;;;;;1999.90;999.90;;;;;;;8.66;41.48;97126.50;5052021;28;20076;-71
2020/12/01 10:47:55;;;;;;;1999.90;999.90;;;;;;;8.34;42.18;97128.75;5051923;28;20502;-71
2020/12/01 10:50:24;;;;;;;1999.90;999.90;;;;;;;8.12;41.80;97120.91;5051764;28;20102;-71
2020/12/01 10:52:49;;;;;;;1999.90;999.90;;;;;;;7.95;43.31;97122.19;5051505;28;20048;-71
2020/12/01 10:55:21;;;;;;;1999.90;999.90;;;;;;;7.63;44.12;97117.28;5051786;28;20055;-71
2020/12/01 10:57:48;;;;;;;1999.90;999.90;;;;;;;8.09;44.78;97118.66;5091661;28;20043;-71
2020/12/01 11:00:13;;;;;;;1999.90;999.90;;;;;;;8.20;43.44;97112.84;5094327;28;20097;-71
2020/12/01 11:02:38;;;;;;;1999.90;999.90;;;;;;;7.48;45.73;97114.75;5094102;28;20036;-71
2020/12/01 11:05:07;;;;;;;1999.90;999.90;;;;;;;7.89;46.22;97105.38;5094025;28;20039;-71
2020/12/01 11:07:33;;;;;;;1999.90;999.90;;;;;;;7.90;44.18;97101.75;5094100;28;20048;-70
2020/12/01 11:09:58;;;;;;;1999.90;999.90;;;;;;;7.53;44.61;97109.75;5094056;28;20047;-71
2020/12/01 11:12:23;;;;;;;1999.90;999.90;;;;;;;7.35;45.98;97104.09;5093640;28;20058;-71
2020/12/01 11:14:49;;;;;;;1999.90;999.90;;;;;;;7.26;46.90;97091.09;5093989;28;20044;-71
2020/12/01 11:17:14;;;;;;;1999.90;999.90;;;;;;;6.98;47.03;97092.81;5093867;28;20050;-71
2020/12/01 11:19:39;;;;;;;1999.90;999.90;;;;;;;6.74;47.18;97087.72;5093913;28;20048;-71
2020/12/01 11:22:05;;;;;;;1999.90;999.90;;;;;;;6.59;48.12;97085.09;5093839;28;20515;-71
2020/12/01 11:24:31;;;;;;;1999.90;999.90;;;;;;;6.53;47.95;97085.03;5094050;28;20046;-71
2020/12/01 11:26:56;;;;;;;1999.90;999.90;;;;;;;6.43;48.40;97080.06;5093748;28;20479;-71
2020/12/01 11:29:21;;;;;;;1999.90;999.90;;;;;;;6.38;48.89;97079.78;5093722;28;20078;-71
2020/12/01 11:31:47;;;;;;;1999.90;999.90;;;;;;;6.24;49.58;97077.00;5093456;28;20504;-71
2020/12/01 11:34:13;;;;;;;1999.90;999.90;;;;;;;6.18;49.28;97077.72;5093674;28;20044;-71
2020/12/01 11:36:39;;;;;;;1999.90;999.90;;;;;;;5.91;49.92;97071.25;5093478;28;20044;-71
2020/12/01 11:39:07;;;;;;;1999.90;999.90;;;;;;;6.12;49.52;97065.31;5093593;28;20055;-71
2020/12/01 11:41:33;;;;;;;1999.90;999.90;;;;;;;6.16;49.17;97061.38;5093309;28;20209;-70
2020/12/01 11:43:59;;;;;;;1999.90;999.90;;;;;;;6.68;49.74;97064.00;5092961;28;20050;-71
2020/12/01 11:46:24;;;;;;;1999.90;999.90;;;;;;;6.89;49.14;97058.81;5093661;28;20123;-70
2020/12/01 11:48:50;;;;;;;1999.90;999.90;;;;;;;6.85;48.90;97052.31;5093362;28;20037;-71
2020/12/01 11:51:16;;;;;;;1999.90;999.90;;;;;;;7.05;48.54;97056.97;5093207;28;20047;-71
2020/12/01 11:53:41;;;;;;;1999.90;999.90;;;;;;;7.07;47.88;97060.22;5093181;28;20051;-71
2020/12/01 11:56:08;;;;;;;1999.90;999.90;;;;;;;6.91;48.49;97048.97;5096851;28;20035;-71
2020/12/01 11:58:34;;;;;;;1999.90;999.90;;;;;;;7.14;46.80;97045.34;5099269;28;20079;-70
2020/12/01 12:00:59;;;;;;;1999.90;999.90;;;;;;;7.54;46.41;97045.69;5093053;28;20032;-69
2020/12/01 12:03:25;;;;;;;1999.90;999.90;;;;;;;7.58;45.94;97036.44;5093179;28;20044;-70